sensor_id;sensor_type;location;lat;lon;timestamp;P1;durP1;ratioP1;P2;durP2;ratioP2
59239;SDS011;45010;53.640;10.578;2022-08-03T00:00:46;1.75;;;1.52;;
59239;SDS011;45010;53.640;10.578;2022-08-03T00:03:47;3.33;;;1.73;;
59239;SDS011;45010;53.640;10.578;2022-08-03T00:06:47;3.33;;;1.63;;
59239;SDS011;45010;53.640;10.578;2022-08-03T00:09:48;3.70;;;1.75;;
59239;SDS011;45010;53.640;10.578;2022-08-03T00:12:49;2.40;;;1.63;;
59239;SDS011;45010;53.640;10.578;2022-08-03T00:15:49;3.00;;;1.73;;
59239;SDS011;45010;53.640;10.578;2022-08-03T00:18:50;2.40;;;2.08;;
59239;SDS011;45010;53.640;10.578;2022-08-03T00:21:50;2.75;;;1.73;;
59239;SDS011;45010;53.640;10.578;2022-08-03T00:24:51;3.30;;;1.63;;
59239;SDS011;45010;53.640;10.578;2022-08-03T00:27:51;5.20;;;1.98;;
59239;SDS011;45010;53.640;10.578;2022-08-03T00:30:52;3.72;;;1.63;;
59239;SDS011;45010;53.640;10.578;2022-08-03T00:33:52;3.20;;;1.60;;
59239;SDS011;45010;53.640;10.578;2022-08-03T00:36:52;2.25;;;1.73;;
59239;SDS011;45010;53.640;10.578;2022-08-03T00:39:53;4.40;;;1.70;;
59239;SDS011;45010;53.640;10.578;2022-08-03T00:42:54;2.22;;;2.03;;
59239;SDS011;45010;53.640;10.578;2022-08-03T00:45:56;2.45;;;1.75;;
59239;SDS011;45010;53.640;10.578;2022-08-03T00:48:56;2.55;;;1.65;;
59239;SDS011;45010;53.640;10.578;2022-08-03T00:51:56;2.78;;;1.80;;
59239;SDS011;45010;53.640;10.578;2022-08-03T00:54:59;2.38;;;1.70;;
59239;SDS011;45010;53.640;10.578;2022-08-03T00:58:00;3.00;;;1.80;;
59239;SDS011;45010;53.640;10.578;2022-08-03T01:01:05;2.38;;;1.70;;
59239;SDS011;45010;53.640;10.578;2022-08-03T01:04:06;1.75;;;1.60;;
59239;SDS011;45010;53.640;10.578;2022-08-03T01:07:16;3.63;;;1.70;;
59239;SDS011;45010;53.640;10.578;2022-08-03T01:13:49;3.38;;;1.70;;
59239;SDS011;45010;53.640;10.578;2022-08-03T01:17:06;2.00;;;1.80;;
59239;SDS011;45010;53.640;10.578;2022-08-03T01:20:12;1.67;;;1.58;;
59239;SDS011;45010;53.640;10.578;2022-08-03T01:29:40;1.88;;;1.63;;
59239;SDS011;45010;53.640;10.578;2022-08-03T01:32:53;3.53;;;1.80;;
59239;SDS011;45010;53.640;10.578;2022-08-03T01:35:57;1.63;;;1.40;;
59239;SDS011;45010;53.640;10.578;2022-08-03T01:39:02;1.67;;;1.55;;
59239;SDS011;45010;53.640;10.578;2022-08-03T01:42:08;1.70;;;1.60;;
59239;SDS011;45010;53.640;10.578;2022-08-03T01:45:11;2.17;;;1.98;;
59239;SDS011;45010;53.640;10.578;2022-08-03T01:48:15;1.73;;;1.60;;
59239;SDS011;45010;53.640;10.578;2022-08-03T01:51:17;2.10;;;1.77;;
59239;SDS011;45010;53.640;10.578;2022-08-03T01:54:19;1.73;;;1.52;;
59239;SDS011;45010;53.640;10.578;2022-08-03T01:57:22;1.50;;;1.40;;
59239;SDS011;45010;53.640;10.578;2022-08-03T02:00:24;1.95;;;1.75;;
59239;SDS011;45010;53.640;10.578;2022-08-03T02:03:27;2.05;;;1.58;;
59239;SDS011;45010;53.640;10.578;2022-08-03T02:06:29;1.70;;;1.35;;
59239;SDS011;45010;53.640;10.578;2022-08-03T02:09:32;1.73;;;1.60;;
59239;SDS011;45010;53.640;10.578;2022-08-03T02:12:36;1.88;;;1.60;;
59239;SDS011;45010;53.640;10.578;2022-08-03T02:15:37;2.85;;;1.75;;
59239;SDS011;45010;53.640;10.578;2022-08-03T02:18:40;2.35;;;1.63;;
59239;SDS011;45010;53.640;10.578;2022-08-03T02:21:41;1.85;;;1.58;;
59239;SDS011;45010;53.640;10.578;2022-08-03T02:24:44;1.80;;;1.70;;
59239;SDS011;45010;53.640;10.578;2022-08-03T02:27:49;2.80;;;1.83;;
59239;SDS011;45010;53.640;10.578;2022-08-03T02:30:53;1.77;;;1.63;;
59239;SDS011;45010;53.640;10.578;2022-08-03T02:33:57;1.70;;;1.60;;
59239;SDS011;45010;53.640;10.578;2022-08-03T02:36:59;1.80;;;1.70;;
59239;SDS011;45010;53.640;10.578;2022-08-03T02:40:03;2.15;;;1.73;;
59239;SDS011;45010;53.640;10.578;2022-08-03T02:43:06;1.90;;;1.65;;
59239;SDS011;45010;53.640;10.578;2022-08-03T02:46:09;2.95;;;1.80;;
59239;SDS011;45010;53.640;10.578;2022-08-03T02:49:14;1.63;;;1.52;;
59239;SDS011;45010;53.640;10.578;2022-08-03T02:52:22;1.67;;;1.58;;
59239;SDS011;45010;53.640;10.578;2022-08-03T02:55:24;1.85;;;1.70;;
59239;SDS011;45010;53.640;10.578;2022-08-03T02:58:26;2.60;;;2.08;;
59239;SDS011;45010;53.640;10.578;2022-08-03T03:01:29;2.03;;;1.88;;
59239;SDS011;45010;53.640;10.578;2022-08-03T03:04:30;1.73;;;1.63;;
59239;SDS011;45010;53.640;10.578;2022-08-03T03:07:32;1.58;;;1.48;;
59239;SDS011;45010;53.640;10.578;2022-08-03T03:10:34;2.30;;;1.55;;
59239;SDS011;45010;53.640;10.578;2022-08-03T03:13:36;3.00;;;1.73;;
59239;SDS011;45010;53.640;10.578;2022-08-03T03:16:38;2.15;;;1.95;;
59239;SDS011;45010;53.640;10.578;2022-08-03T03:19:40;2.00;;;1.88;;
59239;SDS011;45010;53.640;10.578;2022-08-03T03:22:41;2.83;;;1.73;;
59239;SDS011;45010;53.640;10.578;2022-08-03T03:25:43;2.05;;;1.88;;
59239;SDS011;45010;53.640;10.578;2022-08-03T03:28:44;2.30;;;1.88;;
59239;SDS011;45010;53.640;10.578;2022-08-03T03:31:45;2.13;;;1.83;;
59239;SDS011;45010;53.640;10.578;2022-08-03T03:34:45;2.08;;;1.88;;
59239;SDS011;45010;53.640;10.578;2022-08-03T03:37:46;2.13;;;1.90;;
59239;SDS011;45010;53.640;10.578;2022-08-03T03:40:47;2.58;;;2.13;;
59239;SDS011;45010;53.640;10.578;2022-08-03T03:43:48;1.90;;;1.80;;
59239;SDS011;45010;53.640;10.578;2022-08-03T03:46:49;2.33;;;1.92;;
59239;SDS011;45010;53.640;10.578;2022-08-03T03:49:50;2.83;;;2.00;;
59239;SDS011;45010;53.640;10.578;2022-08-03T03:52:50;2.45;;;1.98;;
59239;SDS011;45010;53.640;10.578;2022-08-03T03:55:51;1.98;;;1.88;;
59239;SDS011;45010;53.640;10.578;2022-08-03T03:58:52;2.28;;;2.10;;
59239;SDS011;45010;53.640;10.578;2022-08-03T04:01:52;2.20;;;1.80;;
59239;SDS011;45010;53.640;10.578;2022-08-03T04:04:52;2.30;;;2.10;;
59239;SDS011;45010;53.640;10.578;2022-08-03T04:08:12;2.22;;;2.00;;
59239;SDS011;45010;53.640;10.578;2022-08-03T04:11:37;2.38;;;2.15;;
59239;SDS011;45010;53.640;10.578;2022-08-03T04:14:42;2.58;;;2.38;;
59239;SDS011;45010;53.640;10.578;2022-08-03T04:17:43;2.20;;;2.00;;
59239;SDS011;45010;53.640;10.578;2022-08-03T04:20:45;2.47;;;2.22;;
59239;SDS011;45010;53.640;10.578;2022-08-03T04:23:49;2.95;;;2.40;;
59239;SDS011;45010;53.640;10.578;2022-08-03T04:26:52;2.30;;;2.10;;
59239;SDS011;45010;53.640;10.578;2022-08-03T04:29:54;2.63;;;2.17;;
59239;SDS011;45010;53.640;10.578;2022-08-03T04:32:56;1.83;;;1.73;;
59239;SDS011;45010;53.640;10.578;2022-08-03T04:35:58;2.42;;;2.13;;
59239;SDS011;45010;53.640;10.578;2022-08-03T04:39:02;2.25;;;1.95;;
59239;SDS011;45010;53.640;10.578;2022-08-03T04:42:06;2.17;;;2.00;;
59239;SDS011;45010;53.640;10.578;2022-08-03T04:45:10;2.30;;;2.10;;
59239;SDS011;45010;53.640;10.578;2022-08-03T04:48:12;2.45;;;2.25;;
59239;SDS011;45010;53.640;10.578;2022-08-03T04:51:14;4.07;;;1.85;;
59239;SDS011;45010;53.640;10.578;2022-08-03T04:54:15;2.47;;;2.25;;
59239;SDS011;45010;53.640;10.578;2022-08-03T04:57:15;2.53;;;2.17;;
59239;SDS011;45010;53.640;10.578;2022-08-03T05:00:16;3.50;;;2.38;;
59239;SDS011;45010;53.640;10.578;2022-08-03T05:03:16;2.60;;;2.40;;
59239;SDS011;45010;53.640;10.578;2022-08-03T05:06:17;4.47;;;2.67;;
59239;SDS011;45010;53.640;10.578;2022-08-03T05:09:17;2.67;;;2.47;;
59239;SDS011;45010;53.640;10.578;2022-08-03T05:12:17;2.50;;;2.00;;
59239;SDS011;45010;53.640;10.578;2022-08-03T05:15:18;3.28;;;2.17;;
59239;SDS011;45010;53.640;10.578;2022-08-03T05:18:18;2.53;;;2.25;;
59239;SDS011;45010;53.640;10.578;2022-08-03T05:21:18;2.35;;;2.15;;
59239;SDS011;45010;53.640;10.578;2022-08-03T05:24:19;3.08;;;2.50;;
59239;SDS011;45010;53.640;10.578;2022-08-03T05:27:19;2.97;;;2.22;;
59239;SDS011;45010;53.640;10.578;2022-08-03T05:30:19;3.47;;;2.60;;
59239;SDS011;45010;53.640;10.578;2022-08-03T05:33:20;3.38;;;2.28;;
59239;SDS011;45010;53.640;10.578;2022-08-03T05:36:20;2.60;;;2.40;;
59239;SDS011;45010;53.640;10.578;2022-08-03T05:39:20;2.92;;;2.60;;
59239;SDS011;45010;53.640;10.578;2022-08-03T05:42:20;2.97;;;2.72;;
59239;SDS011;45010;53.640;10.578;2022-08-03T05:45:21;2.85;;;2.63;;
59239;SDS011;45010;53.640;10.578;2022-08-03T05:48:21;3.20;;;2.55;;
59239;SDS011;45010;53.640;10.578;2022-08-03T05:51:22;3.03;;;2.72;;
59239;SDS011;45010;53.640;10.578;2022-08-03T05:54:22;3.53;;;2.92;;
59239;SDS011;45010;53.640;10.578;2022-08-03T05:57:23;5.43;;;2.80;;
59239;SDS011;45010;53.640;10.578;2022-08-03T06:00:24;5.65;;;3.40;;
59239;SDS011;45010;53.640;10.578;2022-08-03T06:03:24;3.97;;;3.15;;
59239;SDS011;45010;53.640;10.578;2022-08-03T06:06:25;6.72;;;3.20;;
59239;SDS011;45010;53.640;10.578;2022-08-03T06:09:25;4.30;;;3.33;;
59239;SDS011;45010;53.640;10.578;2022-08-03T06:12:25;6.47;;;3.63;;
59239;SDS011;45010;53.640;10.578;2022-08-03T06:15:26;4.15;;;2.78;;
59239;SDS011;45010;53.640;10.578;2022-08-03T06:18:26;5.68;;;3.10;;
59239;SDS011;45010;53.640;10.578;2022-08-03T06:21:26;3.95;;;3.13;;
59239;SDS011;45010;53.640;10.578;2022-08-03T06:24:27;5.95;;;3.47;;
59239;SDS011;45010;53.640;10.578;2022-08-03T06:27:27;4.78;;;3.40;;
59239;SDS011;45010;53.640;10.578;2022-08-03T06:30:28;4.55;;;3.47;;
59239;SDS011;45010;53.640;10.578;2022-08-03T06:33:28;3.55;;;3.10;;
59239;SDS011;45010;53.640;10.578;2022-08-03T06:36:28;4.75;;;3.00;;
59239;SDS011;45010;53.640;10.578;2022-08-03T06:39:30;6.25;;;3.03;;
59239;SDS011;45010;53.640;10.578;2022-08-03T06:42:31;4.35;;;3.38;;
59239;SDS011;45010;53.640;10.578;2022-08-03T06:45:31;4.93;;;4.53;;
59239;SDS011;45010;53.640;10.578;2022-08-03T06:48:32;6.70;;;5.97;;
59239;SDS011;45010;53.640;10.578;2022-08-03T06:51:32;6.15;;;4.88;;
59239;SDS011;45010;53.640;10.578;2022-08-03T06:54:33;7.95;;;7.15;;
59239;SDS011;45010;53.640;10.578;2022-08-03T06:57:34;9.02;;;7.10;;
59239;SDS011;45010;53.640;10.578;2022-08-03T07:00:34;7.55;;;6.95;;
59239;SDS011;45010;53.640;10.578;2022-08-03T07:03:34;11.50;;;8.02;;
59239;SDS011;45010;53.640;10.578;2022-08-03T07:06:36;9.10;;;7.50;;
59239;SDS011;45010;53.640;10.578;2022-08-03T07:09:37;9.00;;;7.75;;
59239;SDS011;45010;53.640;10.578;2022-08-03T07:12:37;8.95;;;7.25;;
59239;SDS011;45010;53.640;10.578;2022-08-03T07:15:39;8.65;;;7.35;;
59239;SDS011;45010;53.640;10.578;2022-08-03T07:18:39;7.40;;;6.82;;
59239;SDS011;45010;53.640;10.578;2022-08-03T07:21:40;7.57;;;6.90;;
59239;SDS011;45010;53.640;10.578;2022-08-03T07:24:40;8.35;;;7.65;;
59239;SDS011;45010;53.640;10.578;2022-08-03T07:27:45;8.55;;;7.63;;
59239;SDS011;45010;53.640;10.578;2022-08-03T07:30:46;7.70;;;7.10;;
59239;SDS011;45010;53.640;10.578;2022-08-03T07:33:47;7.55;;;6.90;;
59239;SDS011;45010;53.640;10.578;2022-08-03T07:36:47;7.68;;;7.00;;
59239;SDS011;45010;53.640;10.578;2022-08-03T07:39:47;8.18;;;7.45;;
59239;SDS011;45010;53.640;10.578;2022-08-03T07:42:48;7.97;;;7.20;;
59239;SDS011;45010;53.640;10.578;2022-08-03T07:45:48;7.60;;;6.75;;
59239;SDS011;45010;53.640;10.578;2022-08-03T07:48:48;7.72;;;6.90;;
59239;SDS011;45010;53.640;10.578;2022-08-03T07:51:49;7.95;;;7.35;;
59239;SDS011;45010;53.640;10.578;2022-08-03T07:55:09;6.57;;;6.07;;
59239;SDS011;45010;53.640;10.578;2022-08-03T07:58:10;7.03;;;6.43;;
59239;SDS011;45010;53.640;10.578;2022-08-03T08:01:14;7.75;;;7.00;;
59239;SDS011;45010;53.640;10.578;2022-08-03T08:04:16;7.13;;;6.53;;
59239;SDS011;45010;53.640;10.578;2022-08-03T08:07:16;7.00;;;6.40;;
59239;SDS011;45010;53.640;10.578;2022-08-03T08:10:17;7.50;;;6.88;;
59239;SDS011;45010;53.640;10.578;2022-08-03T08:13:17;7.13;;;6.45;;
59239;SDS011;45010;53.640;10.578;2022-08-03T08:16:18;8.82;;;7.18;;
59239;SDS011;45010;53.640;10.578;2022-08-03T08:19:18;7.50;;;6.90;;
59239;SDS011;45010;53.640;10.578;2022-08-03T08:22:18;7.88;;;7.20;;
59239;SDS011;45010;53.640;10.578;2022-08-03T08:25:19;7.32;;;6.68;;
59239;SDS011;45010;53.640;10.578;2022-08-03T08:28:20;7.15;;;6.50;;
59239;SDS011;45010;53.640;10.578;2022-08-03T08:31:20;7.63;;;6.10;;
59239;SDS011;45010;53.640;10.578;2022-08-03T08:34:21;7.18;;;6.47;;
59239;SDS011;45010;53.640;10.578;2022-08-03T08:37:21;7.43;;;6.35;;
59239;SDS011;45010;53.640;10.578;2022-08-03T08:40:22;7.25;;;6.55;;
59239;SDS011;45010;53.640;10.578;2022-08-03T08:43:22;11.85;;;6.63;;
59239;SDS011;45010;53.640;10.578;2022-08-03T08:46:22;7.32;;;6.60;;
59239;SDS011;45010;53.640;10.578;2022-08-03T08:49:23;9.23;;;6.50;;
59239;SDS011;45010;53.640;10.578;2022-08-03T08:52:27;8.77;;;6.88;;
59239;SDS011;45010;53.640;10.578;2022-08-03T08:55:29;7.43;;;6.75;;
59239;SDS011;45010;53.640;10.578;2022-08-03T08:58:34;8.07;;;6.75;;
59239;SDS011;45010;53.640;10.578;2022-08-03T09:01:37;8.63;;;6.60;;
59239;SDS011;45010;53.640;10.578;2022-08-03T09:04:37;9.57;;;6.55;;
59239;SDS011;45010;53.640;10.578;2022-08-03T09:07:39;8.40;;;6.32;;
59239;SDS011;45010;53.640;10.578;2022-08-03T09:10:40;8.43;;;6.35;;
59239;SDS011;45010;53.640;10.578;2022-08-03T09:13:41;8.50;;;6.00;;
59239;SDS011;45010;53.640;10.578;2022-08-03T09:16:54;7.43;;;6.35;;
59239;SDS011;45010;53.640;10.578;2022-08-03T09:20:05;7.03;;;6.32;;
59239;SDS011;45010;53.640;10.578;2022-08-03T09:23:09;10.00;;;7.00;;
59239;SDS011;45010;53.640;10.578;2022-08-03T09:26:09;6.55;;;5.95;;
59239;SDS011;45010;53.640;10.578;2022-08-03T09:29:10;9.48;;;5.93;;
59239;SDS011;45010;53.640;10.578;2022-08-03T09:32:10;6.38;;;5.82;;
59239;SDS011;45010;53.640;10.578;2022-08-03T09:35:12;7.13;;;6.47;;
59239;SDS011;45010;53.640;10.578;2022-08-03T09:38:14;6.78;;;6.07;;
59239;SDS011;45010;53.640;10.578;2022-08-03T09:41:25;7.22;;;6.43;;
59239;SDS011;45010;53.640;10.578;2022-08-03T09:44:32;6.88;;;6.18;;
59239;SDS011;45010;53.640;10.578;2022-08-03T09:47:36;6.57;;;5.88;;
59239;SDS011;45010;53.640;10.578;2022-08-03T09:50:47;6.57;;;5.93;;
59239;SDS011;45010;53.640;10.578;2022-08-03T09:53:50;6.90;;;5.72;;
59239;SDS011;45010;53.640;10.578;2022-08-03T09:56:51;6.00;;;5.50;;
59239;SDS011;45010;53.640;10.578;2022-08-03T09:59:56;8.35;;;5.80;;
59239;SDS011;45010;53.640;10.578;2022-08-03T10:03:06;7.18;;;5.80;;
59239;SDS011;45010;53.640;10.578;2022-08-03T10:06:16;5.10;;;4.68;;
59239;SDS011;45010;53.640;10.578;2022-08-03T10:09:24;8.00;;;5.82;;
59239;SDS011;45010;53.640;10.578;2022-08-03T10:12:25;6.47;;;5.15;;
59239;SDS011;45010;53.640;10.578;2022-08-03T10:15:26;6.40;;;5.78;;
59239;SDS011;45010;53.640;10.578;2022-08-03T10:18:27;6.85;;;6.10;;
59239;SDS011;45010;53.640;10.578;2022-08-03T10:21:28;7.18;;;4.95;;
59239;SDS011;45010;53.640;10.578;2022-08-03T10:24:33;6.38;;;5.63;;
59239;SDS011;45010;53.640;10.578;2022-08-03T10:27:38;6.82;;;5.57;;
59239;SDS011;45010;53.640;10.578;2022-08-03T10:30:41;6.03;;;5.35;;
59239;SDS011;45010;53.640;10.578;2022-08-03T10:33:48;7.25;;;5.30;;
59239;SDS011;45010;53.640;10.578;2022-08-03T10:36:51;5.97;;;4.90;;
59239;SDS011;45010;53.640;10.578;2022-08-03T10:39:55;7.43;;;5.30;;
59239;SDS011;45010;53.640;10.578;2022-08-03T10:42:58;7.50;;;5.00;;
59239;SDS011;45010;53.640;10.578;2022-08-03T10:46:05;5.63;;;5.03;;
59239;SDS011;45010;53.640;10.578;2022-08-03T10:49:07;8.95;;;5.25;;
59239;SDS011;45010;53.640;10.578;2022-08-03T10:52:11;5.95;;;5.35;;
59239;SDS011;45010;53.640;10.578;2022-08-03T10:58:57;5.53;;;5.03;;
59239;SDS011;45010;53.640;10.578;2022-08-03T11:01:57;6.30;;;4.93;;
59239;SDS011;45010;53.640;10.578;2022-08-03T11:08:33;5.40;;;4.43;;
59239;SDS011;45010;53.640;10.578;2022-08-03T11:11:34;6.18;;;5.00;;
59239;SDS011;45010;53.640;10.578;2022-08-03T11:14:45;5.90;;;5.30;;
59239;SDS011;45010;53.640;10.578;2022-08-03T11:18:01;6.10;;;4.40;;
59239;SDS011;45010;53.640;10.578;2022-08-03T11:21:09;6.63;;;4.80;;
59239;SDS011;45010;53.640;10.578;2022-08-03T11:24:09;7.15;;;5.22;;
59239;SDS011;45010;53.640;10.578;2022-08-03T11:27:29;5.10;;;4.60;;
59239;SDS011;45010;53.640;10.578;2022-08-03T11:30:30;5.95;;;4.25;;
59239;SDS011;45010;53.640;10.578;2022-08-03T11:33:31;6.20;;;5.07;;
59239;SDS011;45010;53.640;10.578;2022-08-03T11:40:09;6.85;;;5.10;;
59239;SDS011;45010;53.640;10.578;2022-08-03T11:43:46;5.97;;;4.22;;
59239;SDS011;45010;53.640;10.578;2022-08-03T11:46:46;6.72;;;4.30;;
59239;SDS011;45010;53.640;10.578;2022-08-03T11:49:47;4.82;;;4.32;;
59239;SDS011;45010;53.640;10.578;2022-08-03T11:52:48;6.68;;;4.43;;
59239;SDS011;45010;53.640;10.578;2022-08-03T11:55:49;5.10;;;4.28;;
59239;SDS011;45010;53.640;10.578;2022-08-03T11:58:50;4.72;;;4.32;;
59239;SDS011;45010;53.640;10.578;2022-08-03T12:02:04;5.75;;;4.05;;
59239;SDS011;45010;53.640;10.578;2022-08-03T12:05:05;4.35;;;3.95;;
59239;SDS011;45010;53.640;10.578;2022-08-03T12:08:06;4.35;;;3.90;;
59239;SDS011;45010;53.640;10.578;2022-08-03T12:11:09;4.20;;;3.88;;
59239;SDS011;45010;53.640;10.578;2022-08-03T12:14:15;4.20;;;3.85;;
59239;SDS011;45010;53.640;10.578;2022-08-03T12:17:16;4.38;;;3.97;;
59239;SDS011;45010;53.640;10.578;2022-08-03T12:20:20;4.50;;;3.92;;
59239;SDS011;45010;53.640;10.578;2022-08-03T12:23:22;4.78;;;3.58;;
59239;SDS011;45010;53.640;10.578;2022-08-03T12:26:26;4.47;;;4.15;;
59239;SDS011;45010;53.640;10.578;2022-08-03T12:29:28;6.32;;;4.03;;
59239;SDS011;45010;53.640;10.578;2022-08-03T12:32:29;7.57;;;4.40;;
59239;SDS011;45010;53.640;10.578;2022-08-03T12:35:29;4.20;;;3.78;;
59239;SDS011;45010;53.640;10.578;2022-08-03T12:38:30;4.05;;;3.65;;
59239;SDS011;45010;53.640;10.578;2022-08-03T12:41:33;5.47;;;4.13;;
59239;SDS011;45010;53.640;10.578;2022-08-03T12:44:37;5.30;;;3.97;;
59239;SDS011;45010;53.640;10.578;2022-08-03T12:47:56;5.60;;;4.00;;
59239;SDS011;45010;53.640;10.578;2022-08-03T12:51:10;6.50;;;3.97;;
59239;SDS011;45010;53.640;10.578;2022-08-03T12:54:20;6.53;;;4.03;;
59239;SDS011;45010;53.640;10.578;2022-08-03T12:57:22;6.00;;;3.67;;
59239;SDS011;45010;53.640;10.578;2022-08-03T13:00:23;5.30;;;4.00;;
59239;SDS011;45010;53.640;10.578;2022-08-03T13:03:25;4.03;;;3.20;;
59239;SDS011;45010;53.640;10.578;2022-08-03T13:06:26;4.15;;;3.75;;
59239;SDS011;45010;53.640;10.578;2022-08-03T13:09:27;4.38;;;4.00;;
59239;SDS011;45010;53.640;10.578;2022-08-03T13:12:28;4.80;;;3.60;;
59239;SDS011;45010;53.640;10.578;2022-08-03T13:15:29;5.05;;;3.47;;
59239;SDS011;45010;53.640;10.578;2022-08-03T13:18:30;4.38;;;3.72;;
59239;SDS011;45010;53.640;10.578;2022-08-03T13:21:30;6.15;;;3.50;;
59239;SDS011;45010;53.640;10.578;2022-08-03T13:24:32;5.63;;;3.20;;
59239;SDS011;45010;53.640;10.578;2022-08-03T13:27:32;4.18;;;3.53;;
59239;SDS011;45010;53.640;10.578;2022-08-03T13:30:32;4.18;;;3.60;;
59239;SDS011;45010;53.640;10.578;2022-08-03T13:33:33;5.53;;;3.53;;
59239;SDS011;45010;53.640;10.578;2022-08-03T13:36:33;3.72;;;3.42;;
59239;SDS011;45010;53.640;10.578;2022-08-03T13:39:34;4.15;;;3.47;;
59239;SDS011;45010;53.640;10.578;2022-08-03T13:42:34;3.67;;;3.38;;
59239;SDS011;45010;53.640;10.578;2022-08-03T13:45:35;3.33;;;3.08;;
59239;SDS011;45010;53.640;10.578;2022-08-03T13:48:36;3.65;;;3.35;;
59239;SDS011;45010;53.640;10.578;2022-08-03T13:51:36;3.17;;;2.85;;
59239;SDS011;45010;53.640;10.578;2022-08-03T13:54:36;3.38;;;2.90;;
59239;SDS011;45010;53.640;10.578;2022-08-03T13:57:37;3.42;;;3.13;;
59239;SDS011;45010;53.640;10.578;2022-08-03T14:00:37;3.67;;;2.95;;
59239;SDS011;45010;53.640;10.578;2022-08-03T14:03:38;5.18;;;3.25;;
59239;SDS011;45010;53.640;10.578;2022-08-03T14:06:39;4.43;;;3.47;;
59239;SDS011;45010;53.640;10.578;2022-08-03T14:09:39;5.32;;;3.28;;
59239;SDS011;45010;53.640;10.578;2022-08-03T14:12:40;3.72;;;3.17;;
59239;SDS011;45010;53.640;10.578;2022-08-03T14:15:40;3.22;;;2.80;;
59239;SDS011;45010;53.640;10.578;2022-08-03T14:18:41;2.78;;;2.50;;
59239;SDS011;45010;53.640;10.578;2022-08-03T14:21:41;3.03;;;2.83;;
59239;SDS011;45010;53.640;10.578;2022-08-03T14:24:42;6.28;;;3.30;;
59239;SDS011;45010;53.640;10.578;2022-08-03T14:27:42;3.88;;;3.00;;
59239;SDS011;45010;53.640;10.578;2022-08-03T14:30:42;4.28;;;3.00;;
59239;SDS011;45010;53.640;10.578;2022-08-03T14:33:43;3.92;;;3.00;;
59239;SDS011;45010;53.640;10.578;2022-08-03T14:36:43;3.38;;;2.80;;
59239;SDS011;45010;53.640;10.578;2022-08-03T14:39:43;3.03;;;2.83;;
59239;SDS011;45010;53.640;10.578;2022-08-03T14:42:45;3.65;;;2.90;;
59239;SDS011;45010;53.640;10.578;2022-08-03T14:45:47;3.90;;;2.67;;
59239;SDS011;45010;53.640;10.578;2022-08-03T14:48:51;5.10;;;2.78;;
59239;SDS011;45010;53.640;10.578;2022-08-03T14:51:51;6.40;;;3.25;;
59239;SDS011;45010;53.640;10.578;2022-08-03T14:54:51;3.33;;;2.53;;
59239;SDS011;45010;53.640;10.578;2022-08-03T14:57:52;3.90;;;2.60;;
59239;SDS011;45010;53.640;10.578;2022-08-03T15:00:52;4.00;;;2.50;;
59239;SDS011;45010;53.640;10.578;2022-08-03T15:03:54;2.85;;;2.45;;
59239;SDS011;45010;53.640;10.578;2022-08-03T15:06:54;4.25;;;3.10;;
59239;SDS011;45010;53.640;10.578;2022-08-03T15:09:55;4.53;;;2.88;;
59239;SDS011;45010;53.640;10.578;2022-08-03T15:12:55;3.78;;;2.85;;
59239;SDS011;45010;53.640;10.578;2022-08-03T15:15:55;3.03;;;2.60;;
59239;SDS011;45010;53.640;10.578;2022-08-03T15:18:56;5.22;;;2.75;;
59239;SDS011;45010;53.640;10.578;2022-08-03T15:21:58;2.90;;;2.45;;
59239;SDS011;45010;53.640;10.578;2022-08-03T15:24:58;4.05;;;3.00;;
59239;SDS011;45010;53.640;10.578;2022-08-03T15:27:58;3.00;;;2.63;;
59239;SDS011;45010;53.640;10.578;2022-08-03T15:30:59;3.10;;;2.88;;
59239;SDS011;45010;53.640;10.578;2022-08-03T15:34:00;3.60;;;2.78;;
59239;SDS011;45010;53.640;10.578;2022-08-03T15:37:00;2.97;;;2.67;;
59239;SDS011;45010;53.640;10.578;2022-08-03T15:40:00;4.78;;;3.00;;
59239;SDS011;45010;53.640;10.578;2022-08-03T15:43:01;5.70;;;3.33;;
59239;SDS011;45010;53.640;10.578;2022-08-03T15:46:01;3.88;;;2.60;;
59239;SDS011;45010;53.640;10.578;2022-08-03T15:49:02;4.18;;;2.83;;
59239;SDS011;45010;53.640;10.578;2022-08-03T15:52:02;3.50;;;2.60;;
59239;SDS011;45010;53.640;10.578;2022-08-03T15:55:03;2.85;;;2.55;;
59239;SDS011;45010;53.640;10.578;2022-08-03T15:58:04;2.63;;;2.42;;
59239;SDS011;45010;53.640;10.578;2022-08-03T16:01:04;4.20;;;2.80;;
59239;SDS011;45010;53.640;10.578;2022-08-03T16:04:05;3.03;;;2.72;;
59239;SDS011;45010;53.640;10.578;2022-08-03T16:07:06;4.43;;;2.78;;
59239;SDS011;45010;53.640;10.578;2022-08-03T16:10:06;4.30;;;2.58;;
59239;SDS011;45010;53.640;10.578;2022-08-03T16:13:07;3.45;;;2.97;;
59239;SDS011;45010;53.640;10.578;2022-08-03T16:16:08;2.92;;;2.58;;
59239;SDS011;45010;53.640;10.578;2022-08-03T16:19:08;2.63;;;2.35;;
59239;SDS011;45010;53.640;10.578;2022-08-03T16:22:09;3.35;;;2.60;;
59239;SDS011;45010;53.640;10.578;2022-08-03T16:25:09;3.10;;;2.53;;
59239;SDS011;45010;53.640;10.578;2022-08-03T16:28:11;3.03;;;2.50;;
59239;SDS011;45010;53.640;10.578;2022-08-03T16:31:11;2.35;;;2.08;;
59239;SDS011;45010;53.640;10.578;2022-08-03T16:34:12;3.42;;;3.13;;
59239;SDS011;45010;53.640;10.578;2022-08-03T16:37:12;2.50;;;2.30;;
59239;SDS011;45010;53.640;10.578;2022-08-03T16:40:12;3.40;;;2.50;;
59239;SDS011;45010;53.640;10.578;2022-08-03T16:43:13;2.70;;;2.50;;
59239;SDS011;45010;53.640;10.578;2022-08-03T16:46:14;2.63;;;2.42;;
59239;SDS011;45010;53.640;10.578;2022-08-03T16:49:15;3.28;;;2.25;;
59239;SDS011;45010;53.640;10.578;2022-08-03T16:52:15;4.22;;;2.20;;
59239;SDS011;45010;53.640;10.578;2022-08-03T16:55:15;2.67;;;2.20;;
59239;SDS011;45010;53.640;10.578;2022-08-03T16:58:16;2.58;;;2.35;;
59239;SDS011;45010;53.640;10.578;2022-08-03T17:01:18;3.53;;;2.20;;
59239;SDS011;45010;53.640;10.578;2022-08-03T17:04:18;3.20;;;2.55;;
59239;SDS011;45010;53.640;10.578;2022-08-03T17:07:19;3.20;;;2.47;;
59239;SDS011;45010;53.640;10.578;2022-08-03T17:10:20;2.47;;;2.28;;
59239;SDS011;45010;53.640;10.578;2022-08-03T17:13:21;2.35;;;2.15;;
59239;SDS011;45010;53.640;10.578;2022-08-03T17:16:22;3.45;;;1.98;;
59239;SDS011;45010;53.640;10.578;2022-08-03T17:19:22;3.28;;;2.53;;
59239;SDS011;45010;53.640;10.578;2022-08-03T17:22:26;2.97;;;2.40;;
59239;SDS011;45010;53.640;10.578;2022-08-03T17:25:30;3.28;;;2.40;;
59239;SDS011;45010;53.640;10.578;2022-08-03T17:28:50;2.22;;;1.98;;
59239;SDS011;45010;53.640;10.578;2022-08-03T17:31:52;4.18;;;2.38;;
59239;SDS011;45010;53.640;10.578;2022-08-03T17:34:53;3.40;;;2.17;;
59239;SDS011;45010;53.640;10.578;2022-08-03T17:37:54;2.15;;;1.95;;
59239;SDS011;45010;53.640;10.578;2022-08-03T17:40:55;3.65;;;2.60;;
59239;SDS011;45010;53.640;10.578;2022-08-03T17:43:56;2.33;;;1.95;;
59239;SDS011;45010;53.640;10.578;2022-08-03T17:46:57;3.75;;;2.63;;
59239;SDS011;45010;53.640;10.578;2022-08-03T17:49:57;3.17;;;2.13;;
59239;SDS011;45010;53.640;10.578;2022-08-03T17:53:01;2.90;;;2.22;;
59239;SDS011;45010;53.640;10.578;2022-08-03T17:56:08;2.20;;;2.00;;
59239;SDS011;45010;53.640;10.578;2022-08-03T18:03:00;3.15;;;2.10;;
59239;SDS011;45010;53.640;10.578;2022-08-03T18:06:13;2.47;;;2.15;;
59239;SDS011;45010;53.640;10.578;2022-08-03T18:09:14;3.17;;;2.20;;
59239;SDS011;45010;53.640;10.578;2022-08-03T18:12:17;1.95;;;1.83;;
59239;SDS011;45010;53.640;10.578;2022-08-03T18:15:27;2.55;;;2.00;;
59239;SDS011;45010;53.640;10.578;2022-08-03T18:18:35;2.63;;;1.92;;
59239;SDS011;45010;53.640;10.578;2022-08-03T18:21:40;2.63;;;2.42;;
59239;SDS011;45010;53.640;10.578;2022-08-03T18:24:42;2.47;;;1.63;;